Terminal Aerodrome Forecast
Issued by NWS

Home | Current Version | Previous Version | Text Only | Print | Product List | Glossary On
Versions: 1 2 3 4 5 6 7 8 9 10 11 12
000
FTUS42 KGSP 221139
TAFHKY
TAF
KHKY 221139Z 2212/2312 02003KT 3SM -DZ BR OVC015
     FM221300 03003KT 4SM -DZ BR OVC015
     FM221900 02002KT P6SM OVC020
     FM230000 VRB02KT 5SM BR OVC025
     FM230600 VRB02KT 1SM BR OVC010=

USA.gov is the U.S. government's official web portal to all federal, state and local government web resources and services.